sensor_id;sensor_type;location;lat;lon;timestamp;P1;durP1;ratioP1;P2;durP2;ratioP2
59024;SDS011;44806;48.008;13.666;2023-02-28T00:01:23;33.47;;;6.95;;
59024;SDS011;44806;48.008;13.666;2023-02-28T00:04:03;30.10;;;7.72;;
59024;SDS011;44806;48.008;13.666;2023-02-28T00:06:39;29.60;;;8.35;;
59024;SDS011;44806;48.008;13.666;2023-02-28T00:09:12;32.72;;;8.27;;
59024;SDS011;44806;48.008;13.666;2023-02-28T00:11:39;36.67;;;7.38;;
59024;SDS011;44806;48.008;13.666;2023-02-28T00:14:15;44.60;;;9.65;;
59024;SDS011;44806;48.008;13.666;2023-02-28T00:16:47;42.03;;;7.95;;
59024;SDS011;44806;48.008;13.666;2023-02-28T00:19:17;32.15;;;7.97;;
59024;SDS011;44806;48.008;13.666;2023-02-28T00:21:56;28.38;;;7.78;;
59024;SDS011;44806;48.008;13.666;2023-02-28T00:24:27;27.63;;;8.75;;
59024;SDS011;44806;48.008;13.666;2023-02-28T00:27:03;38.08;;;10.05;;
59024;SDS011;44806;48.008;13.666;2023-02-28T00:29:35;13.48;;;7.05;;
59024;SDS011;44806;48.008;13.666;2023-02-28T00:32:07;37.30;;;9.23;;
59024;SDS011;44806;48.008;13.666;2023-02-28T00:34:41;25.88;;;9.82;;
59024;SDS011;44806;48.008;13.666;2023-02-28T00:37:18;38.15;;;7.45;;
59024;SDS011;44806;48.008;13.666;2023-02-28T00:39:48;17.90;;;8.02;;
59024;SDS011;44806;48.008;13.666;2023-02-28T00:42:21;35.78;;;6.38;;
59024;SDS011;44806;48.008;13.666;2023-02-28T00:44:50;16.83;;;8.15;;
59024;SDS011;44806;48.008;13.666;2023-02-28T00:47:24;41.33;;;8.48;;
59024;SDS011;44806;48.008;13.666;2023-02-28T00:49:55;36.92;;;9.52;;
59024;SDS011;44806;48.008;13.666;2023-02-28T00:52:27;26.95;;;7.45;;
59024;SDS011;44806;48.008;13.666;2023-02-28T00:54:57;38.75;;;7.30;;
59024;SDS011;44806;48.008;13.666;2023-02-28T00:57:30;32.65;;;9.10;;
59024;SDS011;44806;48.008;13.666;2023-02-28T01:00:01;31.92;;;10.13;;
59024;SDS011;44806;48.008;13.666;2023-02-28T01:02:31;45.97;;;9.60;;
59024;SDS011;44806;48.008;13.666;2023-02-28T01:05:05;38.60;;;7.72;;
59024;SDS011;44806;48.008;13.666;2023-02-28T01:07:39;42.65;;;9.35;;
59024;SDS011;44806;48.008;13.666;2023-02-28T01:10:10;28.45;;;7.75;;
59024;SDS011;44806;48.008;13.666;2023-02-28T01:12:44;31.02;;;8.25;;
59024;SDS011;44806;48.008;13.666;2023-02-28T01:15:16;39.53;;;9.20;;
59024;SDS011;44806;48.008;13.666;2023-02-28T01:17:56;28.75;;;8.63;;
59024;SDS011;44806;48.008;13.666;2023-02-28T01:20:29;27.02;;;9.68;;
59024;SDS011;44806;48.008;13.666;2023-02-28T01:23:02;24.50;;;8.85;;
59024;SDS011;44806;48.008;13.666;2023-02-28T01:25:36;33.17;;;8.52;;
59024;SDS011;44806;48.008;13.666;2023-02-28T01:28:05;15.82;;;7.40;;
59024;SDS011;44806;48.008;13.666;2023-02-28T01:30:35;29.40;;;8.65;;
59024;SDS011;44806;48.008;13.666;2023-02-28T01:33:08;42.55;;;8.02;;
59024;SDS011;44806;48.008;13.666;2023-02-28T01:35:43;36.45;;;8.40;;
59024;SDS011;44806;48.008;13.666;2023-02-28T01:38:18;39.70;;;11.07;;
59024;SDS011;44806;48.008;13.666;2023-02-28T01:40:55;44.53;;;9.52;;
59024;SDS011;44806;48.008;13.666;2023-02-28T01:43:30;29.05;;;9.60;;
59024;SDS011;44806;48.008;13.666;2023-02-28T01:46:18;48.25;;;8.82;;
59024;SDS011;44806;48.008;13.666;2023-02-28T01:48:51;31.00;;;9.07;;
59024;SDS011;44806;48.008;13.666;2023-02-28T01:51:22;34.90;;;9.10;;
59024;SDS011;44806;48.008;13.666;2023-02-28T01:53:57;37.17;;;10.65;;
59024;SDS011;44806;48.008;13.666;2023-02-28T01:56:32;28.10;;;8.60;;
59024;SDS011;44806;48.008;13.666;2023-02-28T01:59:02;40.05;;;11.00;;
59024;SDS011;44806;48.008;13.666;2023-02-28T02:01:32;27.90;;;8.02;;
59024;SDS011;44806;48.008;13.666;2023-02-28T02:04:07;41.88;;;7.93;;
59024;SDS011;44806;48.008;13.666;2023-02-28T02:06:42;38.15;;;6.95;;
59024;SDS011;44806;48.008;13.666;2023-02-28T02:09:17;41.63;;;8.68;;
59024;SDS011;44806;48.008;13.666;2023-02-28T02:11:49;27.10;;;7.93;;
59024;SDS011;44806;48.008;13.666;2023-02-28T02:14:33;37.28;;;7.22;;
59024;SDS011;44806;48.008;13.666;2023-02-28T02:17:22;37.95;;;10.48;;
59024;SDS011;44806;48.008;13.666;2023-02-28T02:23:21;34.95;;;6.90;;
59024;SDS011;44806;48.008;13.666;2023-02-28T02:35:37;31.13;;;6.20;;
59024;SDS011;44806;48.008;13.666;2023-02-28T02:38:24;40.75;;;8.32;;
59024;SDS011;44806;48.008;13.666;2023-02-28T02:41:03;40.60;;;9.25;;
59024;SDS011;44806;48.008;13.666;2023-02-28T02:43:39;40.35;;;9.43;;
59024;SDS011;44806;48.008;13.666;2023-02-28T02:46:20;43.60;;;8.45;;
59024;SDS011;44806;48.008;13.666;2023-02-28T02:49:01;40.10;;;9.43;;
59024;SDS011;44806;48.008;13.666;2023-02-28T02:51:44;38.35;;;9.98;;
59024;SDS011;44806;48.008;13.666;2023-02-28T02:54:19;35.22;;;9.10;;
59024;SDS011;44806;48.008;13.666;2023-02-28T02:56:54;42.50;;;7.87;;
59024;SDS011;44806;48.008;13.666;2023-02-28T02:59:31;32.72;;;8.07;;
59024;SDS011;44806;48.008;13.666;2023-02-28T03:02:12;38.60;;;9.13;;
59024;SDS011;44806;48.008;13.666;2023-02-28T03:04:52;37.10;;;10.75;;
59024;SDS011;44806;48.008;13.666;2023-02-28T03:07:27;46.60;;;10.00;;
59024;SDS011;44806;48.008;13.666;2023-02-28T03:10:00;35.97;;;7.38;;
59024;SDS011;44806;48.008;13.666;2023-02-28T03:12:55;49.08;;;12.77;;
59024;SDS011;44806;48.008;13.666;2023-02-28T03:15:52;36.60;;;10.35;;
59024;SDS011;44806;48.008;13.666;2023-02-28T03:18:30;35.90;;;7.60;;
59024;SDS011;44806;48.008;13.666;2023-02-28T03:21:12;38.80;;;8.68;;
59024;SDS011;44806;48.008;13.666;2023-02-28T03:23:55;38.72;;;7.68;;
59024;SDS011;44806;48.008;13.666;2023-02-28T03:26:31;45.45;;;9.73;;
59024;SDS011;44806;48.008;13.666;2023-02-28T03:29:08;43.85;;;8.98;;
59024;SDS011;44806;48.008;13.666;2023-02-28T03:31:52;23.58;;;9.23;;
59024;SDS011;44806;48.008;13.666;2023-02-28T03:34:31;28.50;;;10.30;;
59024;SDS011;44806;48.008;13.666;2023-02-28T03:37:11;46.47;;;8.88;;
59024;SDS011;44806;48.008;13.666;2023-02-28T03:39:51;26.15;;;9.63;;
59024;SDS011;44806;48.008;13.666;2023-02-28T03:42:27;13.57;;;7.40;;
59024;SDS011;44806;48.008;13.666;2023-02-28T03:45:05;32.67;;;9.13;;
59024;SDS011;44806;48.008;13.666;2023-02-28T03:47:46;43.25;;;9.52;;
59024;SDS011;44806;48.008;13.666;2023-02-28T03:50:23;26.92;;;5.68;;
59024;SDS011;44806;48.008;13.666;2023-02-28T03:52:57;20.35;;;8.65;;
59024;SDS011;44806;48.008;13.666;2023-02-28T03:55:37;42.85;;;11.65;;
59024;SDS011;44806;48.008;13.666;2023-02-28T03:58:11;43.80;;;10.48;;
59024;SDS011;44806;48.008;13.666;2023-02-28T04:00:48;34.83;;;7.57;;
59024;SDS011;44806;48.008;13.666;2023-02-28T04:03:24;46.03;;;10.13;;
59024;SDS011;44806;48.008;13.666;2023-02-28T04:06:02;43.90;;;9.40;;
59024;SDS011;44806;48.008;13.666;2023-02-28T04:08:45;34.28;;;9.40;;
59024;SDS011;44806;48.008;13.666;2023-02-28T04:11:24;37.13;;;8.73;;
59024;SDS011;44806;48.008;13.666;2023-02-28T04:14:03;40.67;;;11.15;;
59024;SDS011;44806;48.008;13.666;2023-02-28T04:16:34;38.58;;;9.18;;
59024;SDS011;44806;48.008;13.666;2023-02-28T04:19:07;38.38;;;9.35;;
59024;SDS011;44806;48.008;13.666;2023-02-28T04:21:38;39.80;;;11.13;;
59024;SDS011;44806;48.008;13.666;2023-02-28T04:24:08;37.58;;;12.27;;
59024;SDS011;44806;48.008;13.666;2023-02-28T04:26:46;46.03;;;9.73;;
59024;SDS011;44806;48.008;13.666;2023-02-28T04:29:20;42.67;;;8.05;;
59024;SDS011;44806;48.008;13.666;2023-02-28T04:31:55;37.30;;;7.53;;
59024;SDS011;44806;48.008;13.666;2023-02-28T04:34:25;43.58;;;7.50;;
59024;SDS011;44806;48.008;13.666;2023-02-28T04:36:54;12.20;;;6.63;;
59024;SDS011;44806;48.008;13.666;2023-02-28T04:39:25;32.35;;;9.55;;
59024;SDS011;44806;48.008;13.666;2023-02-28T04:41:55;33.60;;;9.43;;
59024;SDS011;44806;48.008;13.666;2023-02-28T04:44:31;43.28;;;10.18;;
59024;SDS011;44806;48.008;13.666;2023-02-28T04:47:12;27.40;;;11.05;;
59024;SDS011;44806;48.008;13.666;2023-02-28T04:49:49;48.50;;;10.15;;
59024;SDS011;44806;48.008;13.666;2023-02-28T04:52:17;40.60;;;11.82;;
59024;SDS011;44806;48.008;13.666;2023-02-28T04:54:51;39.72;;;8.90;;
59024;SDS011;44806;48.008;13.666;2023-02-28T04:57:22;44.88;;;10.27;;
59024;SDS011;44806;48.008;13.666;2023-02-28T04:59:55;39.88;;;9.82;;
59024;SDS011;44806;48.008;13.666;2023-02-28T05:02:32;30.40;;;9.10;;
59024;SDS011;44806;48.008;13.666;2023-02-28T05:05:02;30.00;;;9.73;;
59024;SDS011;44806;48.008;13.666;2023-02-28T05:07:42;43.88;;;9.98;;
59024;SDS011;44806;48.008;13.666;2023-02-28T05:10:12;42.33;;;8.32;;
59024;SDS011;44806;48.008;13.666;2023-02-28T05:12:48;21.48;;;8.55;;
59024;SDS011;44806;48.008;13.666;2023-02-28T05:15:23;25.05;;;10.07;;
59024;SDS011;44806;48.008;13.666;2023-02-28T05:17:59;39.30;;;9.20;;
59024;SDS011;44806;48.008;13.666;2023-02-28T05:20:29;32.63;;;10.02;;
59024;SDS011;44806;48.008;13.666;2023-02-28T05:22:57;35.25;;;5.80;;
59024;SDS011;44806;48.008;13.666;2023-02-28T05:25:26;40.58;;;8.13;;
59024;SDS011;44806;48.008;13.666;2023-02-28T05:28:01;33.28;;;10.15;;
59024;SDS011;44806;48.008;13.666;2023-02-28T05:30:33;27.35;;;8.40;;
59024;SDS011;44806;48.008;13.666;2023-02-28T05:33:02;40.65;;;11.07;;
59024;SDS011;44806;48.008;13.666;2023-02-28T05:35:33;45.28;;;9.18;;
59024;SDS011;44806;48.008;13.666;2023-02-28T05:38:12;15.25;;;7.47;;
59024;SDS011;44806;48.008;13.666;2023-02-28T05:40:40;36.63;;;9.68;;
59024;SDS011;44806;48.008;13.666;2023-02-28T05:43:16;41.42;;;9.38;;
59024;SDS011;44806;48.008;13.666;2023-02-28T05:45:54;52.03;;;13.70;;
59024;SDS011;44806;48.008;13.666;2023-02-28T05:48:27;54.10;;;10.18;;
59024;SDS011;44806;48.008;13.666;2023-02-28T05:50:58;40.33;;;9.93;;
59024;SDS011;44806;48.008;13.666;2023-02-28T05:53:25;44.92;;;9.55;;
59024;SDS011;44806;48.008;13.666;2023-02-28T05:55:54;44.88;;;10.23;;
59024;SDS011;44806;48.008;13.666;2023-02-28T05:58:29;13.88;;;7.95;;
59024;SDS011;44806;48.008;13.666;2023-02-28T06:01:18;35.85;;;9.73;;
59024;SDS011;44806;48.008;13.666;2023-02-28T06:03:55;28.48;;;9.88;;
59024;SDS011;44806;48.008;13.666;2023-02-28T06:06:33;29.98;;;9.50;;
59024;SDS011;44806;48.008;13.666;2023-02-28T06:09:04;27.00;;;11.98;;
59024;SDS011;44806;48.008;13.666;2023-02-28T06:11:40;40.50;;;8.63;;
59024;SDS011;44806;48.008;13.666;2023-02-28T06:14:14;43.80;;;9.30;;
59024;SDS011;44806;48.008;13.666;2023-02-28T06:16:46;21.60;;;10.32;;
59024;SDS011;44806;48.008;13.666;2023-02-28T06:19:24;35.92;;;9.77;;
59024;SDS011;44806;48.008;13.666;2023-02-28T06:24:29;22.20;;;12.55;;
59024;SDS011;44806;48.008;13.666;2023-02-28T06:27:02;21.38;;;7.90;;
59024;SDS011;44806;48.008;13.666;2023-02-28T06:29:34;19.92;;;8.43;;
59024;SDS011;44806;48.008;13.666;2023-02-28T06:32:08;44.08;;;8.82;;
59024;SDS011;44806;48.008;13.666;2023-02-28T06:34:36;28.40;;;9.98;;
59024;SDS011;44806;48.008;13.666;2023-02-28T06:37:18;29.90;;;9.68;;
59024;SDS011;44806;48.008;13.666;2023-02-28T06:40:02;36.47;;;7.32;;
59024;SDS011;44806;48.008;13.666;2023-02-28T06:42:35;44.65;;;8.85;;
59024;SDS011;44806;48.008;13.666;2023-02-28T06:45:08;48.60;;;11.32;;
59024;SDS011;44806;48.008;13.666;2023-02-28T06:47:55;43.50;;;8.50;;
59024;SDS011;44806;48.008;13.666;2023-02-28T06:50:27;35.67;;;10.18;;
59024;SDS011;44806;48.008;13.666;2023-02-28T06:53:00;47.20;;;9.43;;
59024;SDS011;44806;48.008;13.666;2023-02-28T06:55:29;48.88;;;10.82;;
59024;SDS011;44806;48.008;13.666;2023-02-28T06:57:59;41.63;;;9.60;;
59024;SDS011;44806;48.008;13.666;2023-02-28T07:00:28;27.02;;;9.85;;
59024;SDS011;44806;48.008;13.666;2023-02-28T07:02:59;25.08;;;10.55;;
59024;SDS011;44806;48.008;13.666;2023-02-28T07:05:27;35.72;;;9.40;;
59024;SDS011;44806;48.008;13.666;2023-02-28T07:07:58;34.00;;;8.75;;
59024;SDS011;44806;48.008;13.666;2023-02-28T07:10:31;26.48;;;7.68;;
59024;SDS011;44806;48.008;13.666;2023-02-28T07:13:07;48.13;;;10.63;;
59024;SDS011;44806;48.008;13.666;2023-02-28T07:15:38;43.05;;;10.95;;
59024;SDS011;44806;48.008;13.666;2023-02-28T07:18:08;41.72;;;7.60;;
59024;SDS011;44806;48.008;13.666;2023-02-28T07:20:36;26.45;;;10.73;;
59024;SDS011;44806;48.008;13.666;2023-02-28T07:23:03;44.95;;;9.48;;
59024;SDS011;44806;48.008;13.666;2023-02-28T07:25:37;24.77;;;10.50;;
59024;SDS011;44806;48.008;13.666;2023-02-28T07:28:10;20.60;;;9.70;;
59024;SDS011;44806;48.008;13.666;2023-02-28T07:30:45;41.05;;;11.23;;
59024;SDS011;44806;48.008;13.666;2023-02-28T07:33:13;33.72;;;11.38;;
59024;SDS011;44806;48.008;13.666;2023-02-28T07:35:48;30.35;;;7.93;;
59024;SDS011;44806;48.008;13.666;2023-02-28T07:38:26;26.27;;;7.68;;
59024;SDS011;44806;48.008;13.666;2023-02-28T07:41:06;51.38;;;10.55;;
59024;SDS011;44806;48.008;13.666;2023-02-28T07:43:35;47.30;;;13.48;;
59024;SDS011;44806;48.008;13.666;2023-02-28T07:46:12;29.75;;;9.23;;
59024;SDS011;44806;48.008;13.666;2023-02-28T07:48:46;30.17;;;9.40;;
59024;SDS011;44806;48.008;13.666;2023-02-28T07:51:17;30.52;;;9.77;;
59024;SDS011;44806;48.008;13.666;2023-02-28T07:53:50;47.75;;;10.88;;
59024;SDS011;44806;48.008;13.666;2023-02-28T07:56:22;44.95;;;9.60;;
59024;SDS011;44806;48.008;13.666;2023-02-28T07:58:53;43.47;;;9.57;;
59024;SDS011;44806;48.008;13.666;2023-02-28T08:01:29;47.95;;;9.57;;
59024;SDS011;44806;48.008;13.666;2023-02-28T08:03:59;44.92;;;9.38;;
59024;SDS011;44806;48.008;13.666;2023-02-28T08:06:27;43.97;;;7.80;;
59024;SDS011;44806;48.008;13.666;2023-02-28T08:09:01;37.90;;;8.30;;
59024;SDS011;44806;48.008;13.666;2023-02-28T08:11:37;47.13;;;11.05;;
59024;SDS011;44806;48.008;13.666;2023-02-28T08:14:07;44.80;;;10.13;;
59024;SDS011;44806;48.008;13.666;2023-02-28T08:16:43;38.28;;;10.85;;
59024;SDS011;44806;48.008;13.666;2023-02-28T08:19:14;23.25;;;10.73;;
59024;SDS011;44806;48.008;13.666;2023-02-28T08:21:43;29.02;;;10.98;;
59024;SDS011;44806;48.008;13.666;2023-02-28T08:24:19;32.42;;;11.52;;
59024;SDS011;44806;48.008;13.666;2023-02-28T08:26:50;39.75;;;12.98;;
59024;SDS011;44806;48.008;13.666;2023-02-28T08:29:18;47.90;;;11.82;;
59024;SDS011;44806;48.008;13.666;2023-02-28T08:31:50;35.03;;;11.75;;
59024;SDS011;44806;48.008;13.666;2023-02-28T08:34:26;32.95;;;13.10;;
59024;SDS011;44806;48.008;13.666;2023-02-28T08:37:05;39.05;;;12.38;;
59024;SDS011;44806;48.008;13.666;2023-02-28T08:39:39;23.52;;;11.40;;
59024;SDS011;44806;48.008;13.666;2023-02-28T08:42:12;23.58;;;9.88;;
59024;SDS011;44806;48.008;13.666;2023-02-28T08:44:42;34.35;;;12.75;;
59024;SDS011;44806;48.008;13.666;2023-02-28T08:47:15;43.00;;;13.27;;
59024;SDS011;44806;48.008;13.666;2023-02-28T08:49:44;19.45;;;10.30;;
59024;SDS011;44806;48.008;13.666;2023-02-28T08:52:20;16.35;;;9.35;;
59024;SDS011;44806;48.008;13.666;2023-02-28T08:54:58;15.77;;;8.82;;
59024;SDS011;44806;48.008;13.666;2023-02-28T08:57:28;43.13;;;10.27;;
59024;SDS011;44806;48.008;13.666;2023-02-28T09:00:01;28.10;;;10.73;;
59024;SDS011;44806;48.008;13.666;2023-02-28T09:02:31;28.98;;;11.20;;
59024;SDS011;44806;48.008;13.666;2023-02-28T09:05:08;27.30;;;11.30;;
59024;SDS011;44806;48.008;13.666;2023-02-28T09:07:46;27.15;;;11.70;;
59024;SDS011;44806;48.008;13.666;2023-02-28T09:10:18;23.77;;;11.15;;
59024;SDS011;44806;48.008;13.666;2023-02-28T09:12:55;26.20;;;12.70;;
59024;SDS011;44806;48.008;13.666;2023-02-28T09:15:27;32.58;;;11.63;;
59024;SDS011;44806;48.008;13.666;2023-02-28T09:18:04;30.05;;;10.25;;
59024;SDS011;44806;48.008;13.666;2023-02-28T09:20:37;23.63;;;9.30;;
59024;SDS011;44806;48.008;13.666;2023-02-28T09:23:09;25.88;;;11.23;;
59024;SDS011;44806;48.008;13.666;2023-02-28T09:25:40;15.63;;;9.50;;
59024;SDS011;44806;48.008;13.666;2023-02-28T09:28:22;29.42;;;11.27;;
59024;SDS011;44806;48.008;13.666;2023-02-28T09:30:55;21.50;;;10.93;;
59024;SDS011;44806;48.008;13.666;2023-02-28T09:33:27;14.73;;;7.88;;
59024;SDS011;44806;48.008;13.666;2023-02-28T09:36:00;31.23;;;12.50;;
59024;SDS011;44806;48.008;13.666;2023-02-28T09:38:37;33.95;;;11.75;;
59024;SDS011;44806;48.008;13.666;2023-02-28T09:41:12;39.17;;;12.15;;
59024;SDS011;44806;48.008;13.666;2023-02-28T09:43:49;24.48;;;11.35;;
59024;SDS011;44806;48.008;13.666;2023-02-28T09:46:31;14.70;;;8.70;;
59024;SDS011;44806;48.008;13.666;2023-02-28T09:49:11;31.20;;;10.85;;
59024;SDS011;44806;48.008;13.666;2023-02-28T09:51:46;16.35;;;8.35;;
59024;SDS011;44806;48.008;13.666;2023-02-28T09:54:30;38.08;;;10.73;;
59024;SDS011;44806;48.008;13.666;2023-02-28T09:57:10;28.60;;;10.00;;
59024;SDS011;44806;48.008;13.666;2023-02-28T09:59:56;21.55;;;10.65;;
59024;SDS011;44806;48.008;13.666;2023-02-28T10:05:33;38.33;;;11.75;;
59024;SDS011;44806;48.008;13.666;2023-02-28T10:08:14;20.13;;;10.88;;
59024;SDS011;44806;48.008;13.666;2023-02-28T10:10:48;21.25;;;9.98;;
59024;SDS011;44806;48.008;13.666;2023-02-28T10:13:33;29.13;;;8.60;;
59024;SDS011;44806;48.008;13.666;2023-02-28T10:16:16;16.25;;;9.13;;
59024;SDS011;44806;48.008;13.666;2023-02-28T10:18:56;18.92;;;9.00;;
59024;SDS011;44806;48.008;13.666;2023-02-28T10:21:37;26.77;;;10.85;;
59024;SDS011;44806;48.008;13.666;2023-02-28T10:24:20;16.73;;;9.50;;
59024;SDS011;44806;48.008;13.666;2023-02-28T10:27:00;12.68;;;8.02;;
59024;SDS011;44806;48.008;13.666;2023-02-28T10:29:38;18.50;;;8.32;;
59024;SDS011;44806;48.008;13.666;2023-02-28T10:34:53;14.15;;;9.48;;
59024;SDS011;44806;48.008;13.666;2023-02-28T10:37:34;27.00;;;10.40;;
59024;SDS011;44806;48.008;13.666;2023-02-28T10:40:06;20.85;;;10.02;;
59024;SDS011;44806;48.008;13.666;2023-02-28T10:42:55;21.65;;;9.63;;
59024;SDS011;44806;48.008;13.666;2023-02-28T10:45:25;13.48;;;8.00;;
59024;SDS011;44806;48.008;13.666;2023-02-28T10:48:00;17.92;;;10.50;;
59024;SDS011;44806;48.008;13.666;2023-02-28T10:50:37;13.52;;;8.77;;
59024;SDS011;44806;48.008;13.666;2023-02-28T10:53:25;18.83;;;10.18;;
59024;SDS011;44806;48.008;13.666;2023-02-28T10:56:16;17.20;;;8.68;;
59024;SDS011;44806;48.008;13.666;2023-02-28T10:58:51;12.50;;;8.50;;
59024;SDS011;44806;48.008;13.666;2023-02-28T11:01:37;21.42;;;10.93;;
59024;SDS011;44806;48.008;13.666;2023-02-28T11:04:16;17.23;;;8.88;;
59024;SDS011;44806;48.008;13.666;2023-02-28T11:06:51;25.20;;;14.10;;
59024;SDS011;44806;48.008;13.666;2023-02-28T11:09:28;14.95;;;8.98;;
59024;SDS011;44806;48.008;13.666;2023-02-28T11:12:01;13.85;;;8.95;;
59024;SDS011;44806;48.008;13.666;2023-02-28T11:14:35;14.93;;;8.90;;
59024;SDS011;44806;48.008;13.666;2023-02-28T11:17:22;18.98;;;10.52;;
59024;SDS011;44806;48.008;13.666;2023-02-28T11:19:55;16.10;;;10.20;;
59024;SDS011;44806;48.008;13.666;2023-02-28T11:22:25;16.30;;;10.45;;
59024;SDS011;44806;48.008;13.666;2023-02-28T11:24:57;14.48;;;8.65;;
59024;SDS011;44806;48.008;13.666;2023-02-28T11:27:45;12.68;;;8.70;;
59024;SDS011;44806;48.008;13.666;2023-02-28T11:36:08;12.93;;;9.02;;
59024;SDS011;44806;48.008;13.666;2023-02-28T11:38:45;19.60;;;10.07;;
59024;SDS011;44806;48.008;13.666;2023-02-28T11:44:23;20.00;;;12.50;;
59024;SDS011;44806;48.008;13.666;2023-02-28T11:47:08;18.08;;;10.73;;
59024;SDS011;44806;48.008;13.666;2023-02-28T11:49:55;22.00;;;11.60;;
59024;SDS011;44806;48.008;13.666;2023-02-28T11:52:44;21.63;;;11.27;;
59024;SDS011;44806;48.008;13.666;2023-02-28T11:55:26;13.20;;;9.10;;
59024;SDS011;44806;48.008;13.666;2023-02-28T11:58:10;16.92;;;12.10;;
59024;SDS011;44806;48.008;13.666;2023-02-28T12:00:57;19.17;;;9.20;;
59024;SDS011;44806;48.008;13.666;2023-02-28T12:03:39;18.27;;;9.77;;
59024;SDS011;44806;48.008;13.666;2023-02-28T12:06:22;17.35;;;10.55;;
59024;SDS011;44806;48.008;13.666;2023-02-28T12:09:08;19.98;;;10.73;;
59024;SDS011;44806;48.008;13.666;2023-02-28T12:12:02;15.95;;;9.82;;
59024;SDS011;44806;48.008;13.666;2023-02-28T12:15:16;12.48;;;9.02;;
59024;SDS011;44806;48.008;13.666;2023-02-28T12:18:01;12.15;;;7.63;;
59024;SDS011;44806;48.008;13.666;2023-02-28T12:20:41;15.40;;;9.63;;
59024;SDS011;44806;48.008;13.666;2023-02-28T12:23:25;11.70;;;8.52;;
59024;SDS011;44806;48.008;13.666;2023-02-28T12:26:11;13.82;;;10.25;;
59024;SDS011;44806;48.008;13.666;2023-02-28T12:29:04;16.15;;;12.30;;
59024;SDS011;44806;48.008;13.666;2023-02-28T12:31:54;16.25;;;10.32;;
59024;SDS011;44806;48.008;13.666;2023-02-28T12:34:31;16.35;;;9.40;;
59024;SDS011;44806;48.008;13.666;2023-02-28T12:37:15;14.70;;;9.85;;
59024;SDS011;44806;48.008;13.666;2023-02-28T12:39:51;13.25;;;9.57;;
59024;SDS011;44806;48.008;13.666;2023-02-28T12:42:35;15.73;;;9.98;;
59024;SDS011;44806;48.008;13.666;2023-02-28T12:45:11;18.95;;;12.88;;
59024;SDS011;44806;48.008;13.666;2023-02-28T12:47:50;20.17;;;9.82;;
59024;SDS011;44806;48.008;13.666;2023-02-28T12:50:27;14.90;;;8.93;;
59024;SDS011;44806;48.008;13.666;2023-02-28T12:52:59;17.05;;;12.65;;
59024;SDS011;44806;48.008;13.666;2023-02-28T12:55:45;17.05;;;10.98;;
59024;SDS011;44806;48.008;13.666;2023-02-28T12:58:30;17.83;;;10.50;;
59024;SDS011;44806;48.008;13.666;2023-02-28T13:01:15;16.70;;;9.45;;
59024;SDS011;44806;48.008;13.666;2023-02-28T13:04:19;14.48;;;10.30;;
59024;SDS011;44806;48.008;13.666;2023-02-28T13:07:34;13.88;;;9.43;;
59024;SDS011;44806;48.008;13.666;2023-02-28T13:10:44;18.00;;;12.05;;
59024;SDS011;44806;48.008;13.666;2023-02-28T13:13:27;15.25;;;9.15;;
59024;SDS011;44806;48.008;13.666;2023-02-28T13:18:33;28.85;;;16.80;;
59024;SDS011;44806;48.008;13.666;2023-02-28T13:21:22;26.00;;;15.98;;
59024;SDS011;44806;48.008;13.666;2023-02-28T13:24:00;21.17;;;14.80;;
59024;SDS011;44806;48.008;13.666;2023-02-28T13:29:35;17.42;;;9.77;;
59024;SDS011;44806;48.008;13.666;2023-02-28T13:44:12;22.88;;;15.70;;
59024;SDS011;44806;48.008;13.666;2023-02-28T13:59:12;15.68;;;10.30;;
59024;SDS011;44806;48.008;13.666;2023-02-28T14:01:59;21.58;;;14.52;;
59024;SDS011;44806;48.008;13.666;2023-02-28T14:05:00;16.45;;;11.02;;
59024;SDS011;44806;48.008;13.666;2023-02-28T14:07:41;24.27;;;17.75;;
59024;SDS011;44806;48.008;13.666;2023-02-28T14:10:20;18.67;;;12.48;;
59024;SDS011;44806;48.008;13.666;2023-02-28T14:12:57;19.52;;;12.55;;
59024;SDS011;44806;48.008;13.666;2023-02-28T14:15:49;21.42;;;14.80;;
59024;SDS011;44806;48.008;13.666;2023-02-28T14:18:30;18.00;;;11.95;;
59024;SDS011;44806;48.008;13.666;2023-02-28T14:21:10;27.45;;;16.73;;
59024;SDS011;44806;48.008;13.666;2023-02-28T14:30:01;21.50;;;10.70;;
59024;SDS011;44806;48.008;13.666;2023-02-28T14:33:19;22.67;;;14.98;;
59024;SDS011;44806;48.008;13.666;2023-02-28T14:36:00;17.25;;;12.95;;
59024;SDS011;44806;48.008;13.666;2023-02-28T14:38:42;22.65;;;15.00;;
59024;SDS011;44806;48.008;13.666;2023-02-28T14:41:28;27.27;;;17.30;;
59024;SDS011;44806;48.008;13.666;2023-02-28T14:44:01;17.42;;;11.13;;
59024;SDS011;44806;48.008;13.666;2023-02-28T14:46:48;21.95;;;12.85;;
59024;SDS011;44806;48.008;13.666;2023-02-28T14:49:23;19.77;;;13.98;;
59024;SDS011;44806;48.008;13.666;2023-02-28T14:52:01;25.70;;;16.52;;
59024;SDS011;44806;48.008;13.666;2023-02-28T14:54:41;18.98;;;12.18;;
59024;SDS011;44806;48.008;13.666;2023-02-28T14:57:20;17.90;;;10.15;;
59024;SDS011;44806;48.008;13.666;2023-02-28T14:59:58;27.02;;;17.55;;
59024;SDS011;44806;48.008;13.666;2023-02-28T15:02:37;18.05;;;11.90;;
59024;SDS011;44806;48.008;13.666;2023-02-28T15:05:16;21.35;;;11.70;;
59024;SDS011;44806;48.008;13.666;2023-02-28T15:08:03;18.27;;;10.10;;
59024;SDS011;44806;48.008;13.666;2023-02-28T15:10:42;16.38;;;10.35;;
59024;SDS011;44806;48.008;13.666;2023-02-28T15:13:23;17.05;;;10.98;;
59024;SDS011;44806;48.008;13.666;2023-02-28T15:16:11;24.13;;;15.23;;
59024;SDS011;44806;48.008;13.666;2023-02-28T15:18:48;15.90;;;11.30;;
59024;SDS011;44806;48.008;13.666;2023-02-28T15:21:27;20.65;;;14.25;;
59024;SDS011;44806;48.008;13.666;2023-02-28T15:24:02;15.75;;;10.48;;
59024;SDS011;44806;48.008;13.666;2023-02-28T15:26:41;20.98;;;11.30;;
59024;SDS011;44806;48.008;13.666;2023-02-28T15:29:20;15.93;;;10.52;;
59024;SDS011;44806;48.008;13.666;2023-02-28T15:31:58;15.45;;;11.07;;
59024;SDS011;44806;48.008;13.666;2023-02-28T15:34:36;20.83;;;15.52;;
59024;SDS011;44806;48.008;13.666;2023-02-28T15:37:28;21.83;;;14.43;;
59024;SDS011;44806;48.008;13.666;2023-02-28T15:40:15;19.52;;;12.50;;
59024;SDS011;44806;48.008;13.666;2023-02-28T15:42:58;20.17;;;12.80;;
59024;SDS011;44806;48.008;13.666;2023-02-28T15:45:40;21.60;;;12.55;;
59024;SDS011;44806;48.008;13.666;2023-02-28T15:48:18;17.42;;;11.57;;
59024;SDS011;44806;48.008;13.666;2023-02-28T15:50:52;15.73;;;10.93;;
59024;SDS011;44806;48.008;13.666;2023-02-28T15:53:28;17.38;;;12.63;;
59024;SDS011;44806;48.008;13.666;2023-02-28T15:56:16;18.70;;;13.02;;
59024;SDS011;44806;48.008;13.666;2023-02-28T15:58:53;18.85;;;11.55;;
59024;SDS011;44806;48.008;13.666;2023-02-28T16:01:29;18.17;;;9.30;;
59024;SDS011;44806;48.008;13.666;2023-02-28T16:03:59;19.52;;;14.73;;
59024;SDS011;44806;48.008;13.666;2023-02-28T16:06:43;19.17;;;11.07;;
59024;SDS011;44806;48.008;13.666;2023-02-28T16:09:12;17.63;;;10.38;;
59024;SDS011;44806;48.008;13.666;2023-02-28T16:11:52;21.27;;;12.57;;
59024;SDS011;44806;48.008;13.666;2023-02-28T16:14:24;20.25;;;13.73;;
59024;SDS011;44806;48.008;13.666;2023-02-28T16:17:02;21.83;;;12.60;;
59024;SDS011;44806;48.008;13.666;2023-02-28T16:19:38;18.88;;;11.20;;